Time;durP1;ratioP1;P1;durP2;ratioP2;P2;SDS_P1;SDS_P2;PMS_P1;PMS_P2;Temp;Humidity;BMP_temperature;BMP_pressure;BME280_temperature;BME280_humidity;BME280_pressure;Samples;Min_cycle;Max_cycle;Signal;HPM_P1;HPM_P2
2022/08/24 00:00:11;;;;;;;5.87;2.00;;;;;;;19.70;63.56;101982.44;4946918;29;20321;-67
2022/08/24 00:02:37;;;;;;;6.33;2.00;;;;;;;19.64;63.74;101987.63;4937498;29;20693;-68
2022/08/24 00:05:04;;;;;;;6.37;1.90;;;;;;;19.63;64.06;101998.91;4945393;23;20723;-73
2022/08/24 00:07:30;;;;;;;3.23;2.03;;;;;;;19.66;63.38;101988.53;4918570;29;20190;-74
2022/08/24 00:09:56;;;;;;;2.97;1.80;;;;;;;19.61;64.25;101988.50;4925046;29;20205;-73
2022/08/24 00:12:22;;;;;;;2.80;1.97;;;;;;;19.59;64.19;101979.84;4925842;29;20190;-74
2022/08/24 00:14:49;;;;;;;2.90;1.73;;;;;;;19.57;64.67;101991.94;4923185;29;20285;-73
2022/08/24 00:17:14;;;;;;;6.57;2.27;;;;;;;19.56;64.46;101984.16;4920330;29;20221;-73
2022/08/24 00:19:41;;;;;;;2.80;2.10;;;;;;;19.56;64.69;101979.84;4903635;29;20618;-74
2022/08/24 00:22:07;;;;;;;4.03;1.87;;;;;;;19.53;65.00;101973.78;4923010;29;20219;-74
2022/08/24 00:24:32;;;;;;;3.30;2.07;;;;;;;19.53;64.80;101978.97;4925830;29;20773;-74
2022/08/24 00:26:58;;;;;;;4.03;2.07;;;;;;;19.51;65.02;101978.97;4891078;29;20186;-74
2022/08/24 00:29:25;;;;;;;7.87;2.33;;;;;;;19.47;65.36;101981.53;4920057;29;20190;-73
2022/08/24 00:31:50;;;;;;;6.20;2.10;;;;;;;19.44;65.84;101984.16;4921671;29;20203;-74
2022/08/24 00:34:16;;;;;;;6.60;2.30;;;;;;;19.43;66.20;101980.69;4923490;29;20812;-74
2022/08/24 00:36:43;;;;;;;5.67;2.00;;;;;;;19.45;65.93;101985.88;4922198;29;20640;-74
2022/08/24 00:39:10;;;;;;;3.87;1.93;;;;;;;19.45;66.06;101994.56;4923903;29;20186;-74
2022/08/24 00:41:43;;;;;;;3.47;2.00;;;;;;;19.42;66.43;101991.06;4902779;29;20205;-73
2022/08/24 00:44:10;;;;;;;5.07;2.00;;;;;;;19.41;66.05;101989.34;4919203;29;20313;-73
2022/08/24 00:46:42;;;;;;;3.80;2.03;;;;;;;19.40;66.19;101987.59;4910805;29;20187;-73
2022/08/24 00:49:44;;;;;;;8.73;2.07;;;;;;;19.37;66.70;101996.25;4912937;29;20305;-74
2022/08/24 00:52:24;;;;;;;3.53;2.17;;;;;;;19.30;67.51;101994.50;4920472;29;20672;-74
2022/08/24 00:54:55;;;;;;;3.70;2.23;;;;;;;19.29;67.18;101992.78;4911999;29;20301;-73
2022/08/24 00:57:33;;;;;;;3.30;2.37;;;;;;;19.31;67.29;101990.19;4902606;29;20325;-74
2022/08/24 01:00:07;;;;;;;5.37;2.20;;;;;;;19.27;67.71;101986.72;4906410;29;20194;-74
2022/08/24 01:02:37;;;;;;;5.97;2.40;;;;;;;19.26;67.54;101991.91;4924573;29;20608;-74
2022/08/24 01:05:06;;;;;;;4.83;2.00;;;;;;;19.24;67.60;101991.03;4922031;29;20242;-74
2022/08/24 01:07:34;;;;;;;4.20;2.23;;;;;;;19.21;68.21;101989.25;4902190;29;20317;-73
2022/08/24 01:10:05;;;;;;;4.23;2.20;;;;;;;19.18;68.52;101994.47;4902837;29;20193;-74
2022/08/24 01:12:33;;;;;;;4.10;2.40;;;;;;;19.21;68.17;101998.78;4919019;29;20206;-74
2022/08/24 01:15:00;;;;;;;3.80;2.30;;;;;;;19.20;68.57;101995.31;4900435;29;20700;-74
2022/08/24 01:20:11;;;;;;;4.37;2.27;;;;;;;19.15;68.77;101991.84;4903124;29;20194;-74
2022/08/24 01:23:26;;;;;;;4.47;2.30;;;;;;;19.08;69.81;101990.09;4902077;29;20916;-74
2022/08/24 01:25:52;;;;;;;3.63;2.33;;;;;;;19.04;69.71;101988.34;4906709;29;20294;-73
2022/08/24 01:28:19;;;;;;;4.23;2.43;;;;;;;19.02;69.85;101995.25;4907951;29;20292;-73
2022/08/24 01:30:45;;;;;;;3.40;2.17;;;;;;;18.97;70.71;101994.38;4897676;29;20231;-73
2022/08/24 01:33:22;;;;;;;4.93;2.30;;;;;;;18.90;70.63;101992.63;4919549;29;20182;-73
2022/08/24 01:35:48;;;;;;;5.27;2.43;;;;;;;18.89;70.89;101995.22;4903699;29;20229;-73
2022/08/24 01:38:15;;;;;;;4.17;2.60;;;;;;;18.88;70.77;101993.50;4916489;29;20653;-73
2022/08/24 01:40:51;;;;;;;3.63;2.63;;;;;;;18.84;71.21;101997.78;4889846;29;20202;-73
2022/08/24 01:43:17;;;;;;;2.40;2.10;;;;;;;18.79;71.61;101996.03;4915999;29;20198;-72
2022/08/24 01:45:43;;;;;;;5.60;2.87;;;;;;;18.78;71.71;101991.69;4902404;29;20198;-73
2022/08/24 01:48:09;;;;;;;4.50;2.67;;;;;;;18.77;71.89;101990.84;4898904;29;20203;-73
2022/08/24 01:50:34;;;;;;;5.73;2.83;;;;;;;18.79;71.80;101999.47;4921594;29;20198;-72
2022/08/24 01:53:03;;;;;;;4.83;2.90;;;;;;;18.76;72.14;101993.41;4924880;29;20243;-73
2022/08/24 01:55:29;;;;;;;4.57;2.67;;;;;;;18.73;72.49;101993.41;4898082;29;20338;-73
2022/08/24 01:57:55;;;;;;;4.93;2.33;;;;;;;18.67;72.47;102002.03;4892742;29;20191;-72
2022/08/24 02:00:21;;;;;;;5.27;2.67;;;;;;;18.66;72.76;101995.09;4898369;29;20193;-72
2022/08/24 02:02:47;;;;;;;4.13;2.70;;;;;;;18.64;72.91;101998.53;4902089;29;20186;-73
2022/08/24 02:05:14;;;;;;;4.30;2.67;;;;;;;18.62;73.33;102005.47;4916214;29;20310;-73
2022/08/24 02:07:40;;;;;;;4.53;2.60;;;;;;;18.63;72.80;102002.00;4898407;29;20195;-73
2022/08/24 02:10:11;;;;;;;4.93;2.73;;;;;;;18.63;73.15;102002.88;4901828;29;20196;-73
2022/08/24 02:12:38;;;;;;;6.10;2.83;;;;;;;18.60;73.13;102005.44;4909046;29;20194;-73
2022/08/24 02:15:07;;;;;;;3.53;2.30;;;;;;;18.58;73.68;102002.00;4900775;29;20241;-73
2022/08/24 02:17:33;;;;;;;6.17;2.53;;;;;;;18.53;74.00;102010.59;4901718;29;20234;-73
2022/08/24 02:19:59;;;;;;;3.53;2.77;;;;;;;18.50;74.35;102014.03;4903020;29;20182;-73
2022/08/24 02:22:25;;;;;;;7.47;2.90;;;;;;;18.49;74.63;102019.22;4918108;29;20264;-73
2022/08/24 02:24:51;;;;;;;5.60;2.70;;;;;;;18.47;74.73;102019.22;4919719;29;20206;-73
2022/08/24 02:27:16;;;;;;;4.27;2.73;;;;;;;18.47;74.79;102016.59;4900707;29;20260;-73
2022/08/24 02:29:42;;;;;;;4.73;2.87;;;;;;;18.45;74.98;102020.94;4894935;29;20739;-73
2022/08/24 02:32:09;;;;;;;4.57;2.60;;;;;;;18.43;75.04;102017.44;4915326;29;20205;-73
2022/08/24 02:34:35;;;;;;;6.17;3.50;;;;;;;18.39;75.68;102009.66;4909072;29;20717;-73
2022/08/24 02:37:00;;;;;;;5.30;2.50;;;;;;;18.36;75.88;102007.03;4917451;29;20268;-73
2022/08/24 02:39:26;;;;;;;6.00;2.60;;;;;;;18.31;76.06;102011.28;4908971;29;20198;-73
2022/08/24 02:41:53;;;;;;;5.37;3.13;;;;;;;18.28;76.26;102016.47;4908380;29;20657;-73
2022/08/24 02:44:19;;;;;;;4.77;2.90;;;;;;;18.23;76.23;102019.00;4902781;29;20288;-73
2022/08/24 02:46:45;;;;;;;7.03;2.93;;;;;;;18.17;76.71;102021.56;4904070;29;20261;-73
2022/08/24 02:49:11;;;;;;;4.60;2.97;;;;;;;18.13;77.01;102027.59;4898350;29;20301;-73
2022/08/24 02:51:40;;;;;;;4.07;3.27;;;;;;;18.12;76.71;102018.09;4908925;29;20183;-73
2022/08/24 02:54:06;;;;;;;3.93;2.90;;;;;;;18.04;76.68;102011.97;4903901;29;20685;-73
2022/08/24 02:56:34;;;;;;;3.90;3.10;;;;;;;18.03;77.29;102014.53;4904510;29;20222;-73
2022/08/24 02:59:00;;;;;;;3.70;2.67;;;;;;;17.94;77.84;102017.06;4902423;29;20189;-73
2022/08/24 03:01:28;;;;;;;5.03;3.10;;;;;;;17.91;77.75;102017.91;4913224;29;20206;-73
2022/08/24 03:03:55;;;;;;;5.53;2.97;;;;;;;17.89;78.01;102021.34;4921523;29;20253;-73
2022/08/24 03:06:21;;;;;;;3.50;2.67;;;;;;;17.88;78.57;102020.50;4911200;29;20269;-73
2022/08/24 03:08:47;;;;;;;6.23;3.50;;;;;;;17.89;78.46;102021.34;4913259;29;20190;-73
2022/08/24 03:11:13;;;;;;;5.83;2.90;;;;;;;17.86;79.11;102024.78;4912540;29;20197;-73
2022/08/24 03:13:39;;;;;;;7.23;3.50;;;;;;;17.87;78.89;102028.25;4907064;29;20206;-73
2022/08/24 03:16:05;;;;;;;7.03;3.27;;;;;;;17.86;79.32;102029.94;4917983;29;20217;-73
2022/08/24 03:18:32;;;;;;;3.77;2.70;;;;;;;17.87;79.01;102028.25;4899598;29;20190;-73
2022/08/24 03:20:59;;;;;;;4.40;2.90;;;;;;;17.86;79.50;102029.94;4902791;29;20649;-73
2022/08/24 03:23:26;;;;;;;5.00;2.87;;;;;;;17.87;79.55;102029.09;4901781;29;20189;-73
2022/08/24 03:25:52;;;;;;;4.57;3.10;;;;;;;17.86;79.51;102034.25;4901409;29;20212;-73
2022/08/24 03:28:19;;;;;;;4.27;3.00;;;;;;;17.80;80.12;102029.91;4917024;29;20194;-73
2022/08/24 03:30:45;;;;;;;7.17;2.90;;;;;;;17.80;79.92;102027.31;4904423;29;20190;-73
2022/08/24 03:33:11;;;;;;;6.53;3.27;;;;;;;17.81;79.92;102026.47;4914730;29;20189;-73
2022/08/24 03:35:38;;;;;;;6.17;3.13;;;;;;;17.79;80.08;102024.72;4918102;29;20775;-73
2022/08/24 03:38:04;;;;;;;5.43;2.90;;;;;;;17.77;80.30;102022.09;4900845;29;20196;-73
2022/08/24 03:40:32;;;;;;;4.53;3.10;;;;;;;17.75;80.54;102025.53;4892034;29;20693;-73
2022/08/24 03:42:57;;;;;;;4.90;3.20;;;;;;;17.71;80.82;102023.75;4896909;29;20181;-73
2022/08/24 03:45:23;;;;;;;4.77;3.20;;;;;;;17.66;81.06;102023.72;4902961;29;20225;-73
2022/08/24 03:47:49;;;;;;;6.47;3.53;;;;;;;17.65;81.51;102024.59;4913801;29;20198;-73
2022/08/24 03:50:15;;;;;;;7.67;3.50;;;;;;;17.65;80.96;102024.59;4900947;29;20317;-73
2022/08/24 03:52:41;;;;;;;4.33;2.90;;;;;;;17.63;81.46;102022.81;4908660;29;20237;-72
2022/08/24 03:55:08;;;;;;;5.40;3.03;;;;;;;17.63;81.28;102022.81;4902672;29;20221;-72
2022/08/24 03:57:34;;;;;;;5.53;3.07;;;;;;;17.63;81.15;102026.28;4905996;29;20649;-72
2022/08/24 04:00:00;;;;;;;5.30;3.30;;;;;;;17.57;81.53;102026.22;4901761;29;20193;-73
2022/08/24 04:02:26;;;;;;;4.23;3.23;;;;;;;17.51;82.02;102023.59;4885372;29;20195;-72
2022/08/24 04:04:52;;;;;;;6.37;3.30;;;;;;;17.47;81.75;102027.00;4898792;29;20222;-73
2022/08/24 04:07:18;;;;;;;4.97;3.03;;;;;;;17.35;82.26;102028.53;4895975;29;20186;-73
2022/08/24 04:09:43;;;;;;;7.40;3.27;;;;;;;17.38;82.42;102038.94;4897582;29;20190;-73
2022/08/24 04:12:09;;;;;;;7.47;3.47;;;;;;;17.36;82.70;102044.09;4905489;29;20690;-72
2022/08/24 04:14:34;;;;;;;6.80;3.43;;;;;;;17.42;82.94;102048.50;4904485;29;20234;-74
2022/08/24 04:17:07;;;;;;;5.47;3.17;;;;;;;17.37;82.73;102043.22;4896355;29;20298;-74
2022/08/24 04:19:56;;;;;;;6.43;3.10;;;;;;;17.36;82.63;102045.84;4906530;29;20194;-73
2022/08/24 04:22:27;;;;;;;5.60;3.40;;;;;;;17.32;82.50;102051.81;4904532;29;20186;-73
2022/08/24 04:24:53;;;;;;;6.00;3.40;;;;;;;17.34;82.92;102052.69;4897323;29;20210;-74
2022/08/24 04:27:20;;;;;;;9.90;3.43;;;;;;;17.30;82.99;102056.97;4917920;29;20195;-75
2022/08/24 04:29:45;;;;;;;7.03;3.60;;;;;;;17.25;83.24;102060.34;4900398;29;20250;-75
2022/08/24 04:32:11;;;;;;;6.83;3.80;;;;;;;17.26;84.04;102064.69;4891891;29;20243;-76
2022/08/24 04:34:36;;;;;;;4.77;3.60;;;;;;;17.35;84.29;102062.19;4894962;29;20589;-75
2022/08/24 04:37:02;;;;;;;8.27;4.33;;;;;;;17.43;84.51;102052.84;4922954;29;20195;-76
2022/08/24 04:39:28;;;;;;;8.43;3.97;;;;;;;17.58;84.17;102053.00;4902254;29;20537;-75
2022/08/24 04:41:56;;;;;;;7.40;3.93;;;;;;;17.61;84.17;102051.31;4919723;29;20280;-74
2022/08/24 04:44:23;;;;;;;5.97;3.60;;;;;;;17.62;84.38;102052.16;4908496;29;20220;-75
2022/08/24 04:46:49;;;;;;;5.70;3.63;;;;;;;17.63;84.28;102044.41;4906329;29;20190;-75
2022/08/24 04:49:14;;;;;;;7.33;4.47;;;;;;;17.64;84.15;102043.56;4906430;29;20201;-74
2022/08/24 04:51:39;;;;;;;8.03;4.00;;;;;;;17.65;84.38;102047.91;4904218;29;20865;-73
2022/08/24 04:54:07;;;;;;;5.80;3.87;;;;;;;17.67;84.38;102047.91;4904141;29;20214;-74
2022/08/24 04:56:33;;;;;;;5.33;4.07;;;;;;;17.68;84.88;102044.47;4905694;29;20225;-73
2022/08/24 04:59:00;;;;;;;9.93;4.10;;;;;;;17.71;84.67;102053.16;4909426;29;20574;-74
2022/08/24 05:01:28;;;;;;;8.30;4.30;;;;;;;17.77;84.80;102052.34;4908322;29;20186;-74
2022/08/24 05:03:55;;;;;;;5.60;3.93;;;;;;;17.78;85.37;102059.25;4916010;29;20222;-74
2022/08/24 05:06:23;;;;;;;5.70;4.37;;;;;;;17.81;85.55;102056.66;4901798;29;20197;-74
2022/08/24 05:08:49;;;;;;;8.23;4.23;;;;;;;17.86;85.47;102062.75;4903823;29;20199;-74
2022/08/24 05:11:16;;;;;;;6.63;4.43;;;;;;;17.88;85.53;102055.91;4900936;29;20261;-74
2022/08/24 05:13:43;;;;;;;8.13;4.43;;;;;;;17.95;85.23;102058.56;4888564;29;20234;-75
2022/08/24 05:16:12;;;;;;;8.70;4.30;;;;;;;18.01;84.90;102058.59;4881774;29;20246;-73
2022/08/24 05:18:39;;;;;;;11.10;4.83;;;;;;;18.09;84.77;102053.47;4915772;29;20202;-73
2022/08/24 05:21:09;;;;;;;5.37;3.73;;;;;;;18.19;84.00;102060.50;4908092;29;20192;-73
2022/08/24 05:23:37;;;;;;;8.03;4.30;;;;;;;18.26;84.47;102052.75;4910702;29;20197;-73
2022/08/24 05:26:05;;;;;;;5.33;3.80;;;;;;;18.38;84.20;102062.41;4928689;29;20187;-73
2022/08/24 05:28:34;;;;;;;7.67;4.33;;;;;;;18.50;84.06;102071.13;4913165;29;20198;-73
2022/08/24 05:31:07;;;;;;;8.47;4.07;;;;;;;18.64;83.31;102066.00;4912121;29;20222;-73
2022/08/24 05:33:34;;;;;;;6.10;4.50;;;;;;;18.70;83.13;102063.47;4907481;29;20580;-76
2022/08/24 05:36:00;;;;;;;6.90;3.57;;;;;;;18.82;83.10;102066.13;4897837;29;20209;-74
2022/08/24 05:38:26;;;;;;;9.50;4.87;;;;;;;18.92;82.95;102070.50;4905472;29;20245;-73
2022/08/24 05:40:51;;;;;;;7.40;4.30;;;;;;;18.99;82.87;102078.34;4915489;29;20198;-74
2022/08/24 05:43:20;;;;;;;5.50;4.10;;;;;;;19.13;82.36;102089.66;4901763;29;20307;-73
2022/08/24 05:45:46;;;;;;;9.17;4.30;;;;;;;19.17;82.68;102085.34;4900454;29;20227;-75
2022/08/24 05:48:12;;;;;;;9.13;4.27;;;;;;;19.30;82.05;102090.63;4894790;29;20253;-75
2022/08/24 05:51:02;;;;;;;10.27;4.40;;;;;;;19.47;82.03;102096.75;4907756;29;20198;-73
2022/08/24 05:53:32;;;;;;;7.37;4.30;;;;;;;19.54;81.80;102092.44;4888586;29;20653;-75
2022/08/24 05:56:10;;;;;;;6.63;4.33;;;;;;;19.57;81.88;102095.06;4902590;29;20229;-75
2022/08/24 05:58:37;;;;;;;8.67;3.77;;;;;;;19.76;81.40;102089.88;4901008;29;20197;-76
2022/08/24 06:01:09;;;;;;;8.37;4.33;;;;;;;19.77;81.36;102096.81;4904257;29;20196;-75
2022/08/24 06:03:35;;;;;;;7.90;4.43;;;;;;;19.77;81.80;102086.41;4907579;29;20260;-76
2022/08/24 06:06:03;;;;;;;7.63;4.60;;;;;;;19.79;82.18;102089.03;4920808;29;20190;-75
2022/08/24 06:08:30;;;;;;;7.57;4.27;;;;;;;19.89;81.95;102093.38;4899733;29;20226;-76
2022/08/24 06:10:57;;;;;;;9.17;4.93;;;;;;;20.00;81.67;102091.66;4903518;29;20197;-73
2022/08/24 06:13:22;;;;;;;7.97;4.63;;;;;;;20.00;82.12;102089.91;4900818;29;20190;-75
2022/08/24 06:15:48;;;;;;;6.13;4.00;;;;;;;20.21;81.47;102094.31;4907597;29;20561;-75
2022/08/24 06:18:17;;;;;;;5.80;3.73;;;;;;;20.37;80.60;102091.72;4900665;29;20201;-75
2022/08/24 06:20:43;;;;;;;8.37;3.73;;;;;;;20.61;79.87;102089.09;4906396;29;20194;-75
2022/08/24 06:23:09;;;;;;;8.53;4.23;;;;;;;20.61;79.63;102099.50;4919483;29;20544;-76
2022/08/24 06:28:24;;;;;;;7.90;4.53;;;;;;;20.81;79.38;102094.25;4904805;29;20198;-75
2022/08/24 06:30:50;;;;;;;5.40;3.47;;;;;;;21.08;78.53;102100.28;4909806;29;20194;-75
2022/08/24 06:33:21;;;;;;;7.90;4.03;;;;;;;21.11;78.01;102096.81;4899022;29;20175;-75
2022/08/24 06:35:50;;;;;;;8.77;4.00;;;;;;;21.26;77.81;102100.22;4902050;29;20218;-76
2022/08/24 06:38:15;;;;;;;5.13;3.40;;;;;;;21.29;77.42;102097.56;4914186;29;20261;-73
2022/08/24 06:40:42;;;;;;;6.07;3.67;;;;;;;21.54;76.44;102095.72;4905802;29;20187;-77
2022/08/24 06:43:09;;;;;;;9.77;4.20;;;;;;;21.61;76.71;102095.69;4913874;29;20240;-76
2022/08/24 06:45:40;;;;;;;6.43;3.70;;;;;;;21.62;75.68;102096.56;4917699;29;20230;-76
2022/08/24 06:48:06;;;;;;;6.03;3.63;;;;;;;21.61;75.44;102095.69;4900367;29;20277;-75
2022/08/24 06:50:32;;;;;;;13.43;3.80;;;;;;;21.86;75.32;102101.66;4871565;29;20230;-75
2022/08/24 06:52:59;;;;;;;8.33;3.87;;;;;;;21.84;74.49;102099.06;4912600;29;20186;-76
2022/08/24 06:55:25;;;;;;;5.27;3.23;;;;;;;21.77;74.58;102115.63;4914379;29;20214;-76
2022/08/24 06:57:50;;;;;;;9.73;3.80;;;;;;;22.00;74.24;102110.25;4919118;29;20198;-73
2022/08/24 07:00:16;;;;;;;5.43;3.67;;;;;;;22.20;73.66;102114.44;4900222;29;20195;-74
2022/08/24 07:02:43;;;;;;;7.20;4.10;;;;;;;22.44;72.51;102111.63;4900896;29;20190;-74
2022/08/24 07:05:09;;;;;;;4.30;3.17;;;;;;;22.15;72.52;102120.56;4902197;29;20251;-75
2022/08/24 07:08:02;;;;;;;7.20;3.50;;;;;;;22.32;71.60;102118.72;4914497;29;20202;-75
2022/08/24 07:10:29;;;;;;;5.47;3.27;;;;;;;22.34;71.32;102107.38;4899081;29;20251;-74
2022/08/24 07:12:55;;;;;;;6.67;3.20;;;;;;;22.66;70.68;102109.75;4889389;29;20696;-74
2022/08/24 07:15:21;;;;;;;5.33;3.00;;;;;;;22.79;70.40;102106.09;4912423;29;20229;-74
2022/08/24 07:17:58;;;;;;;4.20;2.70;;;;;;;23.08;69.50;102111.03;4919039;29;20185;-74
2022/08/24 07:20:23;;;;;;;5.50;2.83;;;;;;;23.17;69.27;102122.25;4897843;29;20194;-75
2022/08/24 07:23:09;;;;;;;8.40;3.40;;;;;;;23.28;68.44;102119.53;4920229;29;20201;-75
2022/08/24 07:25:35;;;;;;;6.57;3.13;;;;;;;23.48;67.98;102120.16;4899800;29;20206;-75
2022/08/24 07:28:01;;;;;;;6.77;3.00;;;;;;;23.24;68.53;102129.16;4901732;29;20262;-74
2022/08/24 07:30:27;;;;;;;8.60;3.37;;;;;;;23.38;68.21;102118.56;4909325;29;20217;-75
2022/08/24 07:32:55;;;;;;;6.23;3.10;;;;;;;23.74;66.90;102118.03;4901741;29;20225;-75
2022/08/24 07:35:21;;;;;;;5.40;3.30;;;;;;;23.73;66.90;102117.19;4905017;29;20228;-75
2022/08/24 07:37:47;;;;;;;4.63;3.13;;;;;;;23.98;65.66;102113.34;4908214;29;20190;-74
2022/08/24 07:40:12;;;;;;;7.80;3.33;;;;;;;23.66;67.00;102120.75;4891666;29;20194;-75
2022/08/24 07:42:41;;;;;;;6.00;3.40;;;;;;;23.49;67.18;102122.75;4893750;29;21344;-75
2022/08/24 07:45:07;;;;;;;5.90;3.40;;;;;;;23.93;66.25;102115.16;4903768;29;20834;-73
2022/08/24 07:47:33;;;;;;;5.70;3.30;;;;;;;24.22;65.30;102117.34;4910938;29;20190;-74
2022/08/24 07:50:01;;;;;;;6.87;3.27;;;;;;;24.05;65.63;102135.94;4892127;28;20241;-74
2022/08/24 07:52:28;;;;;;;7.27;3.57;;;;;;;24.07;65.35;102126.28;4898008;29;20564;-74
2022/08/24 07:54:54;;;;;;;6.00;3.40;;;;;;;24.55;64.41;102119.41;4891128;29;20892;-74
2022/08/24 07:57:20;;;;;;;7.03;3.60;;;;;;;24.49;64.18;102122.97;4906044;29;20194;-74
2022/08/24 07:59:46;;;;;;;4.93;3.23;;;;;;;24.85;63.67;102124.97;4900076;29;20186;-74
2022/08/24 08:02:13;;;;;;;5.57;3.20;;;;;;;24.63;62.83;102125.41;4899281;29;20673;-74
2022/08/24 08:04:42;;;;;;;7.30;3.20;;;;;;;24.88;63.52;102124.06;4898811;29;20292;-74
2022/08/24 08:07:08;;;;;;;6.10;3.20;;;;;;;25.26;62.41;102129.41;4900294;29;20732;-75
2022/08/24 08:09:36;;;;;;;4.93;3.07;;;;;;;25.49;61.69;102125.47;4901502;29;20968;-75
2022/08/24 08:12:02;;;;;;;6.75;3.30;;;;;;;25.64;61.29;102125.13;4903344;29;20189;-74
2022/08/24 08:14:28;;;;;;;4.37;2.90;;;;;;;25.67;60.79;102121.56;4895290;29;20266;-75
2022/08/24 08:16:54;;;;;;;4.65;3.45;;;;;;;26.09;60.77;102120.59;4910920;29;20186;-75
2022/08/24 08:19:21;;;;;;;5.97;3.50;;;;;;;26.06;61.12;102116.28;4900715;29;20190;-75
2022/08/24 08:24:51;;;;;;;5.57;3.25;;;;;;;25.91;58.91;102121.00;4888733;29;20269;-75
2022/08/24 08:27:17;;;;;;;4.60;3.03;;;;;;;26.26;58.89;102110.56;4901846;29;20198;-75
2022/08/24 08:29:42;;;;;;;4.85;3.22;;;;;;;26.03;59.18;102119.00;4903063;29;20187;-76
2022/08/24 08:32:10;;;;;;;5.18;3.22;;;;;;;26.37;58.64;102119.03;4901869;29;21005;-75
2022/08/24 08:34:37;;;;;;;6.78;3.33;;;;;;;26.46;58.21;102122.28;4911799;29;20206;-75
2022/08/24 08:37:02;;;;;;;5.93;3.03;;;;;;;26.53;57.34;102120.38;4915833;29;20704;-75
2022/08/24 08:39:29;;;;;;;4.22;3.13;;;;;;;26.25;56.67;102121.97;4908177;29;20222;-75
2022/08/24 08:42:13;;;;;;;5.40;3.10;;;;;;;26.53;57.01;102120.38;4921268;29;20287;-75
2022/08/24 08:44:42;;;;;;;6.97;2.90;;;;;;;26.42;58.00;102119.78;4911508;29;20245;-75
2022/08/24 08:47:26;;;;;;;5.00;3.05;;;;;;;26.74;56.96;102115.44;4910530;29;20742;-75
2022/08/24 08:50:13;;;;;;;8.15;2.85;;;;;;;27.15;54.74;102117.81;4920391;29;20194;-75
2022/08/24 08:52:57;;;;;;;4.53;2.92;;;;;;;27.05;54.68;102115.47;4916508;29;20194;-75
2022/08/24 08:55:51;;;;;;;5.22;3.30;;;;;;;27.43;53.77;102112.63;4912995;29;20701;-75
2022/08/24 08:58:32;;;;;;;6.22;2.90;;;;;;;27.88;52.63;102113.88;4906020;29;20276;-75
2022/08/24 09:01:07;;;;;;;5.07;2.92;;;;;;;28.19;52.38;102110.22;4880556;29;20245;-75
2022/08/24 09:03:57;;;;;;;5.53;2.97;;;;;;;28.38;51.22;102110.47;4916375;29;20194;-75
2022/08/24 09:06:48;;;;;;;5.65;2.90;;;;;;;28.59;50.70;102113.25;4916637;29;20198;-75
2022/08/24 09:09:34;;;;;;;6.40;3.13;;;;;;;28.64;50.27;102107.84;4901835;29;20658;-75
2022/08/24 09:12:18;;;;;;;3.67;2.72;;;;;;;28.80;50.59;102109.00;4907167;29;20204;-75
2022/08/24 09:15:08;;;;;;;4.07;2.83;;;;;;;28.63;50.80;102103.47;4918952;29;20288;-75
2022/08/24 09:17:40;;;;;;;5.50;2.95;;;;;;;28.69;50.19;102095.34;4915773;29;20242;-75
2022/08/24 09:20:25;;;;;;;4.32;2.53;;;;;;;28.89;50.29;102103.41;4917858;29;20200;-75
2022/08/24 09:23:28;;;;;;;5.43;2.78;;;;;;;29.15;48.35;102101.56;4905619;29;20202;-76
2022/08/24 09:26:31;;;;;;;4.20;2.90;;;;;;;29.13;49.15;102102.53;4901784;29;20281;-71
2022/08/24 09:29:15;;;;;;;4.47;2.80;;;;;;;29.56;47.66;102100.06;4919132;29;20706;-73
2022/08/24 09:31:56;;;;;;;4.20;2.70;;;;;;;29.67;47.35;102097.84;4901654;29;20245;-73
2022/08/24 09:34:28;;;;;;;5.82;2.92;;;;;;;30.11;45.47;102097.75;4915658;29;20214;-73
2022/08/24 09:36:53;;;;;;;4.65;2.80;;;;;;;29.81;45.69;102093.75;4900476;29;20221;-74
2022/08/24 09:39:39;;;;;;;5.43;2.70;;;;;;;30.29;45.80;102093.50;4920614;29;20190;-74
2022/08/24 09:42:26;;;;;;;4.93;2.70;;;;;;;30.17;45.88;102101.09;4917876;29;20198;-75
2022/08/24 09:45:10;;;;;;;5.90;3.13;;;;;;;30.28;45.60;102088.31;4920170;29;20293;-74
2022/08/24 09:47:54;;;;;;;5.22;2.63;;;;;;;30.77;44.75;102093.22;4910172;29;20190;-74
2022/08/24 09:50:40;;;;;;;4.88;2.33;;;;;;;30.42;43.71;102096.53;4918938;29;20665;-76
2022/08/24 09:53:42;;;;;;;6.95;2.45;;;;;;;30.49;43.41;102085.63;4899686;29;20332;-74
2022/08/24 09:56:26;;;;;;;4.05;2.50;;;;;;;31.00;43.69;102083.34;4919051;29;20222;-75
2022/08/24 09:59:17;;;;;;;5.22;2.88;;;;;;;31.38;42.90;102082.47;4918410;29;20193;-74
2022/08/24 10:02:12;;;;;;;5.13;2.70;;;;;;;31.17;43.22;102079.91;4903232;29;20187;-73
2022/08/24 10:04:50;;;;;;;4.75;2.80;;;;;;;31.15;42.63;102084.41;4915654;29;20690;-74
2022/08/24 10:07:40;;;;;;;4.90;2.60;;;;;;;31.29;41.88;102072.28;4900215;29;20202;-75
2022/08/24 10:10:31;;;;;;;5.20;2.88;;;;;;;30.95;42.63;102074.75;4917866;29;20677;-74
2022/08/24 10:13:32;;;;;;;6.18;2.90;;;;;;;31.07;41.95;102074.19;4924170;29;20677;-74
2022/08/24 10:16:19;;;;;;;3.30;2.45;;;;;;;31.41;41.21;102063.78;4890699;29;20217;-76
2022/08/24 10:19:12;;;;;;;5.05;2.60;;;;;;;31.41;41.05;102073.50;4913889;29;20194;-75
2022/08/24 10:22:02;;;;;;;3.65;2.50;;;;;;;31.79;40.71;102067.25;4915214;29;20235;-75
2022/08/24 10:24:46;;;;;;;3.17;2.42;;;;;;;32.15;39.96;102061.00;4915207;29;20265;-75
2022/08/24 10:27:28;;;;;;;6.25;2.33;;;;;;;32.38;38.50;102060.72;4926219;29;20178;-75
2022/08/24 10:30:20;;;;;;;4.07;2.58;;;;;;;32.29;38.72;102057.66;4921719;29;20213;-74
2022/08/24 10:33:16;;;;;;;7.57;2.50;;;;;;;32.59;37.83;102054.28;4899456;29;20233;-75
2022/08/24 10:36:06;;;;;;;4.80;2.40;;;;;;;32.75;36.83;102049.03;4915806;29;20720;-75
2022/08/24 10:42:08;;;;;;;6.03;2.67;;;;;;;32.58;36.73;102047.25;4915875;29;20195;-74
2022/08/24 10:44:46;;;;;;;3.90;2.47;;;;;;;32.31;38.14;102045.19;4897963;29;20694;-74
2022/08/24 10:47:20;;;;;;;5.43;2.17;;;;;;;32.62;37.61;102048.81;4918630;29;20186;-76
2022/08/24 10:50:05;;;;;;;3.67;2.00;;;;;;;32.18;36.17;102049.38;4901570;29;20197;-74
2022/08/24 10:52:49;;;;;;;3.78;2.03;;;;;;;32.85;35.93;102051.13;4906965;29;20615;-73
2022/08/24 10:55:15;;;;;;;3.47;2.30;;;;;;;33.11;34.08;102041.75;4918514;29;20226;-75
2022/08/24 10:58:10;;;;;;;5.75;2.58;;;;;;;33.38;35.12;102046.41;4918167;29;20848;-76
2022/08/24 11:00:36;;;;;;;5.55;2.13;;;;;;;33.51;34.43;102047.44;4914002;29;20183;-75
2022/08/24 11:03:11;;;;;;;3.65;2.30;;;;;;;33.45;35.25;102037.16;4920433;29;20936;-75
2022/08/24 11:05:49;;;;;;;4.03;2.17;;;;;;;33.50;35.08;102040.41;4922492;29;20214;-75
2022/08/24 11:08:34;;;;;;;3.92;2.20;;;;;;;33.51;34.00;102041.28;4915671;29;20314;-75
2022/08/24 11:11:03;;;;;;;4.25;2.00;;;;;;;33.84;32.37;102042.03;4918530;29;20189;-76
2022/08/24 11:13:29;;;;;;;3.25;2.20;;;;;;;33.46;34.10;102045.97;4917053;29;20273;-75
2022/08/24 11:15:58;;;;;;;4.85;2.22;;;;;;;33.61;34.50;102039.81;4922738;29;20301;-74
2022/08/24 11:18:25;;;;;;;5.63;2.70;;;;;;;33.89;35.35;102045.28;4919279;29;20234;-74
2022/08/24 11:20:53;;;;;;;2.42;1.98;;;;;;;34.04;33.11;102045.25;4909064;29;20327;-74
2022/08/24 11:23:22;;;;;;;5.88;2.30;;;;;;;33.79;33.44;102038.75;4909216;29;20234;-74
2022/08/24 11:26:23;;;;;;;5.28;2.63;;;;;;;33.06;35.39;102047.31;4919541;29;20241;-74
2022/08/24 11:28:52;;;;;;;2.22;1.90;;;;;;;33.64;35.38;102048.47;4925129;29;20675;-74
2022/08/24 11:31:38;;;;;;;3.08;2.58;;;;;;;33.18;35.44;102046.66;4922133;29;20209;-74
2022/08/24 11:34:13;;;;;;;4.57;2.47;;;;;;;33.91;35.72;102046.91;4901828;29;20213;-74
2022/08/24 11:36:39;;;;;;;3.33;2.10;;;;;;;33.65;33.45;102044.84;4917190;29;20229;-75
2022/08/24 11:39:10;;;;;;;5.10;2.50;;;;;;;33.41;33.96;102053.34;4897295;29;20205;-76
2022/08/24 11:41:50;;;;;;;3.58;2.25;;;;;;;33.68;33.36;102050.00;4906283;29;20221;-75
2022/08/24 11:44:37;;;;;;;3.85;2.30;;;;;;;33.81;32.16;102051.06;4897024;29;20277;-75
2022/08/24 11:47:07;;;;;;;5.97;2.40;;;;;;;33.29;34.04;102046.06;4918528;29;20189;-75
2022/08/24 11:49:39;;;;;;;4.80;2.38;;;;;;;33.27;34.29;102048.78;4907043;29;20194;-75
2022/08/24 11:52:34;;;;;;;4.95;2.38;;;;;;;33.49;33.88;102051.13;4916116;29;20190;-75
2022/08/24 11:55:26;;;;;;;3.92;1.80;;;;;;;33.40;32.87;102039.22;4911376;29;20209;-75